KPIR/PIR METAR and TAF weather

Enter ICAO airport designator
Station Type Date Time Source
KPIR METAR 2021/03/03 01:53 UTC NOAA

KPIR 030153Z AUTO 24006KT 10SM CLR 06/M01 A2985 RMK AO2 SLP123 T00611006


Station Type Date Time Source
KPIR Decoded METAR 2021/03/03 01:53 UTC NOAA

PIERRE REGIONAL AIRPORT, SD, United States (KPIR) 44-23N 100-17W 526M
Mar 02, 2021 - 08:53 PM EST / 2021.03.03 0153 UTC
Wind: from the WSW (240 degrees) at 7 MPH (6 KT):0
Visibility: 10 mile(s):0
Sky conditions: clear
Temperature: 43.0 F (6.1 C)
Dew Point: 30.9 F (-0.6 C)
Relative Humidity: 62%
Pressure (altimeter): 29.85 in. Hg (1010 hPa)
ob: KPIR 030153Z AUTO 24006KT 10SM CLR 06/M01 A2985 RMK AO2 SLP123 T00611006
cycle: 2

Station Type Date Time Source
KPIR TAF 2021/03/02 23:45 UTC NOAA

TAF
AMD KPIR 022243Z 0223/0318 31012G20KT P6SM SKC
FM030000 27009KT P6SM SKC

Example: see airport list